createdAt,value
2016-08-25T00:00:31.697Z,54.22
2016-08-25T00:00:54.417Z,54.22
2016-08-25T00:01:21.927Z,53.90
2016-08-25T00:01:48.735Z,53.86
2016-08-25T00:02:15.223Z,54.07
2016-08-25T00:02:46.490Z,54.09
2016-08-25T00:04:16.135Z,53.65
2016-08-25T00:05:08.904Z,53.95
2016-08-25T00:05:33.164Z,53.78
2016-08-25T00:06:33.477Z,53.93
2016-08-25T00:07:07.262Z,54.34
2016-08-25T00:07:38.335Z,54.14
2016-08-25T00:08:04.830Z,53.81
2016-08-25T00:08:33.315Z,53.54
2016-08-25T00:08:59.823Z,53.44
2016-08-25T00:09:21.539Z,53.62
2016-08-25T00:09:44.277Z,53.81
2016-08-25T00:10:16.542Z,54.10
2016-08-25T00:11:13.517Z,54.00
2016-08-25T00:11:40.009Z,54.06
2016-08-25T00:12:12.265Z,53.85
2016-08-25T00:12:46.201Z,53.80
2016-08-25T00:13:10.482Z,54.13
2016-08-25T00:13:37.971Z,53.84
2016-08-25T00:14:11.756Z,54.23
2016-08-25T00:15:12.054Z,53.95
2016-08-25T00:15:33.777Z,53.85
2016-08-25T00:15:55.491Z,53.84
2016-08-25T00:16:22.797Z,53.71
2016-08-25T00:16:50.299Z,53.55
2016-08-25T00:17:21.371Z,53.60
2016-08-25T00:17:52.441Z,53.59
2016-08-25T00:18:24.708Z,53.63
2016-08-25T00:19:22.477Z,53.82
2016-08-25T00:19:44.346Z,53.97
2016-08-25T00:20:09.042Z,54.04
2016-08-25T00:20:35.543Z,54.21
2016-08-25T00:21:02.050Z,54.10
2016-08-25T00:21:30.536Z,54.20
2016-08-25T00:22:01.018Z,54.41
2016-08-25T00:22:32.578Z,54.78
2016-08-25T00:22:57.231Z,54.44
2016-08-25T00:23:24.724Z,54.19
2016-08-25T00:23:47.443Z,54.09
2016-08-25T00:24:11.734Z,54.04
2016-08-25T00:25:09.099Z,53.88
2016-08-25T00:26:31.191Z,54.59
2016-08-25T00:26:55.851Z,54.37
2016-08-25T00:27:20.245Z,54.15
2016-08-25T00:27:46.548Z,54.40
2016-08-25T00:28:13.049Z,54.24
2016-08-25T00:28:37.746Z,54.07
2016-08-25T00:29:00.461Z,53.95
2016-08-25T00:29:22.210Z,54.08
2016-08-25T00:29:44.122Z,54.02
2016-08-25T00:30:05.875Z,53.76
2016-08-25T00:30:28.593Z,53.89
2016-08-25T00:30:54.258Z,53.92
2016-08-25T00:31:18.718Z,54.32
2016-08-25T00:31:40.499Z,54.22
2016-08-25T00:32:02.288Z,54.22
2016-08-25T00:32:28.780Z,54.14
2016-08-25T00:32:55.276Z,53.87
2016-08-25T00:33:17.097Z,53.89
2016-08-25T00:33:39.845Z,54.07
2016-08-25T00:34:06.333Z,53.88
2016-08-25T00:34:54.556Z,53.77
2016-08-25T00:36:29.085Z,54.95
2016-08-25T00:36:58.255Z,55.01
2016-08-25T00:38:26.864Z,55.17
2016-08-25T00:38:49.580Z,55.33
2016-08-25T00:39:15.885Z,55.53
2016-08-25T00:39:42.410Z,55.60
2016-08-25T00:40:04.195Z,55.50
2016-08-25T00:41:24.307Z,54.20
2016-08-25T00:41:48.677Z,54.31
2016-08-25T00:43:13.763Z,54.49
2016-08-25T00:43:36.484Z,54.49
2016-08-25T00:44:02.983Z,54.69
2016-08-25T00:44:27.286Z,54.68
2016-08-25T00:44:49.017Z,54.34
2016-08-25T00:45:20.989Z,54.39
2016-08-25T00:45:47.473Z,54.57
2016-08-25T00:46:09.196Z,54.44
2016-08-25T00:47:02.174Z,54.67
2016-08-25T00:47:38.205Z,54.94
2016-08-25T00:48:13.726Z,54.77
2016-08-25T00:48:40.240Z,54.46
2016-08-25T00:50:36.150Z,54.54
2016-08-25T00:51:00.421Z,54.73
2016-08-25T00:51:26.912Z,54.52
2016-08-25T00:51:56.152Z,54.64
2016-08-25T00:52:25.193Z,54.85
2016-08-25T00:52:56.470Z,54.90
2016-08-25T00:53:52.790Z,54.46
2016-08-25T00:54:24.049Z,54.22
2016-08-25T00:55:16.187Z,53.86
2016-08-25T00:55:40.522Z,53.90
2016-08-25T00:56:19.001Z,54.23
2016-08-25T00:57:51.192Z,54.41
2016-08-25T00:58:58.371Z,53.96
2016-08-25T01:00:44.160Z,54.67
2016-08-25T01:01:10.733Z,54.91
2016-08-25T01:03:30.429Z,55.36
2016-08-25T01:09:24.291Z,54.32
2016-08-25T01:10:12.550Z,54.56
2016-08-25T01:11:00.819Z,54.46
2016-08-25T01:11:22.579Z,54.81
2016-08-25T01:11:44.322Z,54.88
2016-08-25T01:12:10.898Z,54.64
2016-08-25T01:12:35.325Z,54.61
2016-08-25T01:12:59.239Z,54.64
2016-08-25T01:13:21.051Z,54.82
2016-08-25T01:13:42.957Z,55.05
2016-08-25T01:14:11.507Z,54.87
2016-08-25T01:14:36.113Z,54.69
2016-08-25T01:15:05.469Z,54.42
2016-08-25T01:15:27.254Z,54.33
2016-08-25T01:15:53.793Z,54.25
2016-08-25T01:17:27.555Z,55.14
2016-08-25T01:18:55.962Z,54.98
2016-08-25T01:19:23.524Z,54.84
2016-08-25T01:21:45.042Z,54.83
2016-08-25T01:22:22.734Z,54.64
2016-08-25T01:23:46.446Z,54.19
2016-08-25T01:24:13.072Z,54.27
2016-08-25T01:24:37.789Z,54.25
2016-08-25T01:25:11.182Z,54.37
2016-08-25T01:25:46.108Z,54.17
2016-08-25T01:26:47.869Z,54.10
2016-08-25T01:28:51.482Z,54.85
2016-08-25T01:29:27.506Z,54.51
2016-08-25T01:30:04.951Z,54.43
2016-08-25T01:30:32.468Z,54.51
2016-08-25T01:31:24.778Z,54.48
2016-08-25T01:31:47.656Z,54.80
2016-08-25T01:32:17.174Z,54.71
2016-08-25T01:33:49.989Z,54.98
2016-08-25T01:35:03.946Z,54.57
2016-08-25T01:35:35.039Z,54.78
2016-08-25T01:36:11.081Z,54.76
2016-08-25T01:36:38.745Z,54.92
2016-08-25T01:37:31.849Z,54.59
2016-08-25T01:38:36.096Z,54.18
2016-08-25T01:39:02.625Z,54.34
2016-08-25T01:39:58.778Z,54.51
2016-08-25T01:40:25.421Z,54.58
2016-08-25T01:40:50.180Z,54.52
2016-08-25T01:41:14.532Z,54.77
2016-08-25T01:41:43.883Z,54.77
2016-08-25T01:42:06.631Z,54.71
2016-08-25T01:43:18.762Z,54.75
2016-08-25T01:44:12.823Z,55.02
2016-08-25T01:45:54.795Z,54.90
2016-08-25T01:46:22.341Z,54.73
2016-08-25T01:47:18.372Z,54.48
2016-08-25T01:49:10.209Z,54.71
2016-08-25T01:49:59.518Z,54.88
2016-08-25T01:51:02.115Z,54.67
2016-08-25T01:51:30.666Z,54.45
2016-08-25T01:52:05.695Z,54.27
2016-08-25T01:52:41.728Z,54.22
2016-08-25T01:53:07.566Z,54.32
2016-08-25T01:53:29.332Z,54.61
2016-08-25T01:54:03.601Z,55.12
2016-08-25T01:54:44.482Z,55.13
2016-08-25T01:55:07.244Z,55.29
2016-08-25T01:56:09.808Z,55.22
2016-08-25T01:56:31.568Z,55.25
2016-08-25T01:57:25.718Z,55.81
2016-08-25T01:57:47.477Z,55.80
2016-08-25T01:58:14.016Z,55.89
2016-08-25T01:59:40.329Z,55.00
2016-08-25T02:01:59.003Z,54.87
2016-08-25T02:02:31.321Z,55.09
2016-08-25T02:03:36.083Z,55.07
2016-08-25T02:04:59.049Z,55.18
2016-08-25T02:05:53.163Z,55.61
2016-08-25T02:06:27.205Z,55.58
2016-08-25T02:06:58.472Z,55.22
2016-08-25T02:07:25.133Z,55.10
2016-08-25T02:12:18.542Z,55.13
2016-08-25T02:12:45.047Z,55.12
2016-08-25T02:15:05.818Z,55.14
2016-08-25T02:15:27.603Z,55.08
2016-08-25T02:15:56.756Z,55.35
2016-08-25T02:17:24.050Z,55.33
2016-08-25T02:18:18.259Z,55.54
2016-08-25T02:19:16.174Z,56.41
2016-08-25T02:21:56.079Z,56.64
2016-08-25T02:22:22.570Z,56.70
2016-08-25T02:22:44.317Z,56.63
2016-08-25T02:23:38.375Z,56.80
2016-08-25T02:24:04.865Z,57.04
2016-08-25T02:24:59.881Z,56.54
2016-08-25T02:25:22.643Z,56.39
2016-08-25T02:25:50.163Z,56.57
2016-08-25T02:26:13.081Z,56.58
2016-08-25T02:26:44.357Z,56.87
2016-08-25T02:27:33.644Z,57.38
2016-08-25T02:28:00.149Z,57.74
2016-08-25T02:28:48.553Z,57.75
2016-08-25T02:29:51.639Z,57.31
2016-08-25T02:30:23.940Z,56.86
2016-08-25T02:32:30.963Z,57.32
2016-08-25T02:32:52.715Z,57.83
2016-08-25T02:33:15.562Z,57.67
2016-08-25T02:33:37.549Z,57.33
2016-08-25T02:34:00.506Z,57.30
2016-08-25T02:34:28.209Z,57.48
2016-08-25T02:35:17.697Z,57.72
2016-08-25T02:35:40.438Z,57.65
2016-08-25T02:36:07.007Z,57.86
2016-08-25T02:36:56.293Z,57.30
2016-08-25T02:37:19.140Z,57.43
2016-08-25T02:37:43.480Z,57.78
2016-08-25T02:38:10.057Z,57.84
2016-08-25T02:39:41.959Z,57.05
2016-08-25T02:40:30.237Z,57.35
2016-08-25T02:40:52.010Z,57.44
2016-08-25T02:41:18.520Z,57.23
2016-08-25T02:42:07.947Z,57.74
2016-08-25T02:42:33.415Z,58.04
2016-08-25T02:42:55.454Z,58.06
2016-08-25T02:43:22.654Z,58.63
2016-08-25T02:43:50.177Z,58.78
2016-08-25T02:44:16.844Z,58.52
2016-08-25T02:44:53.889Z,58.15
2016-08-25T02:45:33.135Z,57.66
2016-08-25T02:46:35.007Z,58.68
2016-08-25T02:47:01.652Z,58.86
2016-08-25T02:47:24.537Z,59.38
2016-08-25T02:47:55.652Z,59.17
2016-08-25T02:48:31.692Z,58.77
2016-08-25T02:48:55.449Z,58.62
2016-08-25T02:49:18.231Z,58.68
2016-08-25T02:49:40.291Z,59.00
2016-08-25T02:50:03.172Z,58.95
2016-08-25T02:50:27.844Z,59.13
2016-08-25T02:50:50.743Z,59.16
2016-08-25T02:51:49.534Z,59.38
2016-08-25T02:52:11.351Z,59.56
2016-08-25T02:52:33.134Z,59.43
2016-08-25T02:52:55.905Z,58.92
2016-08-25T02:53:22.544Z,58.88
2016-08-25T02:53:44.273Z,59.06
2016-08-25T02:54:38.304Z,58.87
2016-08-25T02:55:00.120Z,58.53
2016-08-25T02:55:21.953Z,58.52
2016-08-25T02:55:43.705Z,58.29
2016-08-25T02:56:11.233Z,58.47
2016-08-25T02:56:33.161Z,58.86
2016-08-25T02:56:55.937Z,58.94
2016-08-25T02:57:22.496Z,59.09
2016-08-25T02:59:15.898Z,60.10
2016-08-25T02:59:50.164Z,59.94
2016-08-25T03:01:25.028Z,59.88
2016-08-25T03:02:57.102Z,60.23
2016-08-25T03:03:55.106Z,60.43
2016-08-25T03:04:52.928Z,60.16
2016-08-25T03:05:19.254Z,60.00
2016-08-25T03:09:25.463Z,60.80
2016-08-25T03:10:52.760Z,59.95
2016-08-25T03:12:39.189Z,59.39
2016-08-25T03:13:54.114Z,59.98
2016-08-25T03:14:25.385Z,60.00
2016-08-25T03:14:48.145Z,60.13
2016-08-25T03:15:11.917Z,59.64
2016-08-25T03:16:05.867Z,60.09
2016-08-25T03:17:45.984Z,60.08
2016-08-25T03:18:15.180Z,60.40
2016-08-25T03:18:49.075Z,60.20
2016-08-25T03:19:31.653Z,59.88
2016-08-25T03:19:53.506Z,60.02
2016-08-25T03:20:15.565Z,60.16
2016-08-25T03:20:48.941Z,60.21
2016-08-25T03:21:12.404Z,60.40
2016-08-25T03:21:48.445Z,60.44
2016-08-25T03:25:15.174Z,60.17
2016-08-25T03:25:46.466Z,60.18
2016-08-25T03:26:25.098Z,60.18
2016-08-25T03:27:09.634Z,60.11
2016-08-25T03:28:52.140Z,60.44
2016-08-25T03:29:16.507Z,61.01
2016-08-25T03:30:34.247Z,61.06
2016-08-25T03:32:10.871Z,60.32
2016-08-25T03:34:09.637Z,60.78
2016-08-25T03:34:40.061Z,60.46
2016-08-25T03:35:54.542Z,60.41
2016-08-25T03:36:25.431Z,61.41
2016-08-25T03:36:50.183Z,61.49
2016-08-25T03:37:45.312Z,60.90
2016-08-25T03:38:08.075Z,60.93
2016-08-25T03:38:31.810Z,60.70
2016-08-25T03:38:53.535Z,60.48
2016-08-25T03:39:15.301Z,60.54
2016-08-25T03:39:37.070Z,60.79
2016-08-25T03:39:58.827Z,61.20
2016-08-25T03:40:26.339Z,61.72
2016-08-25T03:40:53.880Z,61.72
2016-08-25T03:42:01.506Z,60.59
2016-08-25T03:42:23.304Z,60.41
2016-08-25T03:42:50.803Z,60.29
2016-08-25T03:43:54.394Z,60.74
2016-08-25T03:44:17.194Z,60.85
2016-08-25T03:44:42.685Z,61.34
2016-08-25T03:45:04.491Z,61.26
2016-08-25T03:45:26.507Z,61.75
2016-08-25T03:46:20.768Z,62.26
2016-08-25T03:47:21.232Z,62.09
2016-08-25T03:47:42.983Z,62.13
2016-08-25T03:48:10.570Z,62.08
2016-08-25T03:48:45.463Z,61.53
2016-08-25T03:49:07.211Z,61.35
2016-08-25T03:49:28.959Z,61.64
2016-08-25T03:49:51.707Z,62.07
2016-08-25T03:51:12.317Z,61.64
2016-08-25T03:51:35.279Z,61.64
2016-08-25T03:52:28.398Z,61.50
2016-08-25T03:52:55.023Z,61.46
2016-08-25T03:53:17.017Z,61.44
2016-08-25T03:53:39.993Z,61.67
2016-08-25T03:54:41.469Z,60.86
2016-08-25T03:55:07.999Z,60.81
2016-08-25T03:55:39.273Z,61.12
2016-08-25T03:56:13.146Z,61.24
2016-08-25T03:56:35.906Z,61.47
2016-08-25T03:56:57.649Z,61.60
2016-08-25T03:57:19.408Z,61.67
2016-08-25T03:57:45.909Z,61.47
2016-08-25T03:58:12.407Z,61.31
2016-08-25T03:58:34.139Z,61.00
2016-08-25T03:58:56.913Z,60.63
2016-08-25T03:59:18.640Z,60.81
2016-08-25T03:59:40.404Z,60.68
2016-08-25T04:00:09.002Z,60.86
2016-08-25T04:01:06.804Z,60.62
2016-08-25T04:02:51.485Z,60.56
2016-08-25T04:04:27.229Z,60.36
2016-08-25T04:04:54.795Z,61.16
2016-08-25T04:05:19.566Z,61.65
2016-08-25T04:05:52.862Z,62.08
2016-08-25T04:08:01.514Z,62.00
2016-08-25T04:08:25.271Z,61.81
2016-08-25T04:08:53.806Z,61.60
2016-08-25T04:09:25.083Z,61.07
2016-08-25T04:09:57.357Z,60.92
2016-08-25T04:10:21.840Z,60.62
2016-08-25T04:10:51.338Z,61.20
2016-08-25T04:11:49.226Z,60.91
2016-08-25T04:12:52.849Z,60.65
2016-08-25T04:13:46.862Z,60.36
2016-08-25T04:14:19.022Z,60.42
2016-08-25T04:14:50.308Z,60.25
2016-08-25T04:15:16.835Z,60.05
2016-08-25T04:15:43.354Z,60.37
2016-08-25T04:16:06.127Z,60.50
2016-08-25T04:16:54.582Z,60.70
2016-08-25T04:17:17.329Z,61.40
2016-08-25T04:17:39.058Z,61.46
2016-08-25T04:18:00.777Z,61.06
2016-08-25T04:18:22.503Z,61.21
2016-08-25T04:18:44.209Z,61.06
2016-08-25T04:19:05.930Z,60.57
2016-08-25T04:19:27.651Z,60.42
2016-08-25T04:19:49.368Z,60.30
2016-08-25T04:20:11.092Z,60.30
2016-08-25T04:20:32.807Z,60.19
2016-08-25T04:20:54.526Z,59.94
2016-08-25T04:21:16.243Z,60.26
2016-08-25T04:21:37.965Z,60.24
2016-08-25T04:21:59.684Z,60.24
2016-08-25T04:22:21.439Z,60.25
2016-08-25T04:22:43.153Z,60.49
2016-08-25T04:23:05.878Z,60.34
2016-08-25T04:23:27.601Z,60.23
2016-08-25T04:23:49.319Z,60.29
2016-08-25T04:24:11.041Z,60.36
2016-08-25T04:24:32.774Z,60.47
2016-08-25T04:24:54.492Z,60.65
2016-08-25T04:25:16.209Z,60.71
2016-08-25T04:25:37.937Z,60.73
2016-08-25T04:26:00.652Z,60.74
2016-08-25T04:26:22.371Z,60.86
2016-08-25T04:26:47.006Z,61.12
2016-08-25T04:27:08.730Z,61.26
2016-08-25T04:27:30.474Z,61.43
2016-08-25T04:27:52.185Z,61.19
2016-08-25T04:28:13.910Z,61.31
2016-08-25T04:28:35.626Z,61.12
2016-08-25T04:28:57.344Z,60.81
2016-08-25T04:29:19.077Z,60.67
2016-08-25T04:29:40.787Z,60.34
2016-08-25T04:30:02.506Z,60.09
2016-08-25T04:30:24.237Z,59.99
2016-08-25T04:30:45.955Z,60.49
2016-08-25T04:31:07.680Z,60.89
2016-08-25T04:31:29.397Z,60.98
2016-08-25T04:31:51.114Z,60.81
2016-08-25T04:32:12.851Z,60.85
2016-08-25T04:32:34.572Z,60.64
2016-08-25T04:32:56.292Z,60.59
2016-08-25T04:33:18.020Z,60.46
2016-08-25T04:33:39.750Z,60.42
2016-08-25T04:34:01.478Z,59.99
2016-08-25T04:34:23.210Z,60.09
2016-08-25T04:34:44.948Z,59.97
2016-08-25T04:35:06.672Z,60.09
2016-08-25T04:35:28.397Z,60.00
2016-08-25T04:35:50.117Z,60.14
2016-08-25T04:36:11.831Z,59.84
2016-08-25T04:36:33.553Z,59.78
2016-08-25T04:36:55.289Z,59.70
2016-08-25T04:37:16.994Z,59.73
2016-08-25T04:37:38.712Z,59.60
2016-08-25T04:38:00.436Z,59.94
2016-08-25T04:38:22.152Z,60.45
2016-08-25T04:38:43.869Z,61.12
2016-08-25T04:39:05.608Z,61.36
2016-08-25T04:39:27.319Z,61.29
2016-08-25T04:39:49.043Z,60.99
2016-08-25T04:40:10.758Z,60.51
2016-08-25T04:40:32.476Z,60.56
2016-08-25T04:40:54.205Z,60.11
2016-08-25T04:41:15.924Z,60.47
2016-08-25T04:41:37.641Z,60.93
2016-08-25T04:41:59.359Z,61.39
2016-08-25T04:42:21.089Z,61.24
2016-08-25T04:42:42.808Z,61.03
2016-08-25T04:43:04.526Z,60.85
2016-08-25T04:43:26.248Z,60.74
2016-08-25T04:43:47.984Z,60.59
2016-08-25T04:44:09.698Z,60.37
2016-08-25T04:44:31.422Z,60.52
2016-08-25T04:44:53.143Z,60.59
2016-08-25T04:45:14.865Z,60.54
2016-08-25T04:45:36.583Z,60.48
2016-08-25T04:45:58.303Z,60.30
2016-08-25T04:46:20.018Z,60.44
2016-08-25T04:46:41.732Z,60.43
2016-08-25T04:47:03.457Z,60.41
2016-08-25T04:47:25.173Z,60.29
2016-08-25T04:47:46.899Z,60.38
2016-08-25T04:48:08.619Z,60.51
2016-08-25T04:48:30.333Z,60.50
2016-08-25T04:48:52.048Z,60.25
2016-08-25T04:49:13.773Z,60.35
2016-08-25T04:49:35.602Z,60.22
2016-08-25T04:49:57.323Z,60.26
2016-08-25T04:50:19.041Z,60.31
2016-08-25T04:50:40.762Z,60.41
2016-08-25T04:51:02.500Z,60.28
2016-08-25T04:51:24.220Z,60.32
2016-08-25T04:51:45.936Z,60.57
2016-08-25T04:52:07.654Z,60.53
2016-08-25T04:52:29.369Z,60.41
2016-08-25T04:52:51.081Z,60.43
2016-08-25T04:53:12.798Z,60.55
2016-08-25T04:53:34.532Z,60.99
2016-08-25T04:53:56.232Z,61.38
2016-08-25T04:54:18.015Z,61.25
2016-08-25T04:54:39.725Z,61.16
2016-08-25T04:55:01.456Z,60.99
2016-08-25T04:55:23.172Z,60.58
2016-08-25T04:55:44.890Z,60.63
2016-08-25T04:56:06.616Z,60.94
2016-08-25T04:56:28.352Z,60.64
2016-08-25T04:56:50.075Z,60.53
2016-08-25T04:57:11.802Z,60.46
2016-08-25T04:57:33.531Z,60.50
2016-08-25T04:57:55.249Z,60.30
2016-08-25T04:58:16.966Z,60.40
2016-08-25T04:58:38.681Z,60.84
2016-08-25T04:59:00.405Z,60.81
2016-08-25T04:59:22.122Z,60.58
2016-08-25T04:59:43.834Z,60.56
2016-08-25T05:00:05.561Z,60.64
2016-08-25T05:00:27.276Z,60.93
2016-08-25T05:00:48.993Z,60.87
2016-08-25T05:01:10.711Z,60.83
2016-08-25T05:01:32.426Z,61.01
2016-08-25T05:01:54.154Z,61.22
2016-08-25T05:02:15.871Z,61.13
2016-08-25T05:02:37.586Z,61.02
2016-08-25T05:02:59.316Z,60.85
2016-08-25T05:03:21.030Z,60.78
2016-08-25T05:03:42.756Z,60.69
2016-08-25T05:04:04.482Z,60.74
2016-08-25T05:04:26.197Z,60.80
2016-08-25T05:04:47.914Z,60.72
2016-08-25T05:05:09.684Z,60.79
2016-08-25T05:05:31.399Z,60.64
2016-08-25T05:05:53.121Z,60.61
2016-08-25T05:06:14.845Z,60.87
2016-08-25T05:06:36.563Z,60.63
2016-08-25T05:06:58.293Z,60.45
2016-08-25T05:07:20.013Z,60.55
2016-08-25T05:07:41.727Z,60.54
2016-08-25T05:08:03.447Z,60.65
2016-08-25T05:08:25.178Z,60.84
2016-08-25T05:08:46.890Z,61.01
2016-08-25T05:09:08.602Z,61.12
2016-08-25T05:09:30.356Z,61.37
2016-08-25T05:09:56.848Z,61.18
2016-08-25T05:10:18.567Z,61.13
2016-08-25T05:10:40.367Z,61.13
2016-08-25T05:11:02.088Z,61.14
2016-08-25T05:11:23.815Z,61.31
2016-08-25T05:11:45.533Z,61.47
2016-08-25T05:12:07.254Z,61.51
2016-08-25T05:12:29.004Z,61.26
2016-08-25T05:12:50.732Z,61.06
2016-08-25T05:13:12.462Z,61.14
2016-08-25T05:13:34.197Z,61.10
2016-08-25T05:13:55.917Z,61.27
2016-08-25T05:14:17.636Z,61.07
2016-08-25T05:14:39.393Z,61.05
2016-08-25T05:15:01.152Z,60.86
2016-08-25T05:15:22.870Z,60.68
2016-08-25T05:15:44.585Z,60.80
2016-08-25T05:16:06.300Z,60.92
2016-08-25T05:16:28.020Z,60.74
2016-08-25T05:16:49.744Z,60.48
2016-08-25T05:17:11.473Z,60.66
2016-08-25T05:17:33.195Z,60.56
2016-08-25T05:17:54.912Z,60.53
2016-08-25T05:18:16.628Z,60.46
2016-08-25T05:18:38.341Z,60.32
2016-08-25T05:19:00.085Z,60.25
2016-08-25T05:19:21.822Z,60.28
2016-08-25T05:19:43.542Z,60.27
2016-08-25T05:20:05.263Z,60.26
2016-08-25T05:20:26.977Z,60.31
2016-08-25T05:20:48.692Z,60.26
2016-08-25T05:21:10.412Z,60.34
2016-08-25T05:21:32.217Z,60.34
2016-08-25T05:21:53.939Z,60.36
2016-08-25T05:22:15.656Z,60.45
2016-08-25T05:22:37.374Z,60.60
2016-08-25T05:22:59.096Z,60.67
2016-08-25T05:23:20.821Z,60.74
2016-08-25T05:23:42.544Z,60.67
2016-08-25T05:24:04.259Z,60.81
2016-08-25T05:24:25.981Z,60.61
2016-08-25T05:24:47.706Z,60.43
2016-08-25T05:25:09.431Z,60.63
2016-08-25T05:25:31.149Z,60.90
2016-08-25T05:25:52.866Z,60.86
2016-08-25T05:26:14.606Z,60.69
2016-08-25T05:26:36.320Z,60.84
2016-08-25T05:26:58.040Z,60.78
2016-08-25T05:27:19.763Z,60.59
2016-08-25T05:27:41.478Z,60.53
2016-08-25T05:28:03.205Z,60.37
2016-08-25T05:28:24.917Z,60.27
2016-08-25T05:28:46.633Z,60.39
2016-08-25T05:29:08.341Z,60.32
2016-08-25T05:29:30.075Z,60.45
2016-08-25T05:29:51.803Z,60.58
2016-08-25T05:30:13.518Z,60.85
2016-08-25T05:30:35.237Z,60.69
2016-08-25T05:30:56.974Z,60.58
2016-08-25T05:31:18.695Z,60.61
2016-08-25T05:31:40.416Z,60.64
2016-08-25T05:32:02.135Z,61.06
2016-08-25T05:32:23.854Z,60.96
2016-08-25T05:32:45.584Z,60.92
2016-08-25T05:33:07.312Z,61.00
2016-08-25T05:33:29.030Z,60.88
2016-08-25T05:33:50.747Z,60.61
2016-08-25T05:34:12.459Z,60.50
2016-08-25T05:34:34.184Z,60.57
2016-08-25T05:34:55.902Z,60.44
2016-08-25T05:35:17.623Z,60.56
2016-08-25T05:35:39.343Z,60.45
2016-08-25T05:36:01.061Z,60.39
2016-08-25T05:36:22.781Z,60.35
2016-08-25T05:36:44.524Z,60.42
2016-08-25T05:37:06.231Z,60.79
2016-08-25T05:37:27.958Z,60.64
2016-08-25T05:37:49.672Z,60.39
2016-08-25T05:38:11.386Z,60.47
2016-08-25T05:38:33.104Z,60.25
2016-08-25T05:38:54.829Z,60.13
2016-08-25T05:39:16.548Z,60.23
2016-08-25T05:39:38.266Z,60.26
2016-08-25T05:40:00.001Z,60.27
2016-08-25T05:40:21.722Z,60.20
2016-08-25T05:40:43.434Z,60.15
2016-08-25T05:41:05.153Z,60.09
2016-08-25T05:41:26.869Z,60.11
2016-08-25T05:41:48.630Z,60.28
2016-08-25T05:42:10.343Z,60.22
2016-08-25T05:42:32.059Z,60.09
2016-08-25T05:42:53.777Z,59.91
2016-08-25T05:43:15.509Z,60.11
2016-08-25T05:43:41.989Z,60.22
2016-08-25T05:44:03.714Z,60.30
2016-08-25T05:44:25.453Z,60.66
2016-08-25T05:44:47.171Z,60.58
2016-08-25T05:45:08.900Z,60.56
2016-08-25T05:45:30.625Z,60.30
2016-08-25T05:45:52.346Z,60.32
2016-08-25T05:46:14.062Z,60.59
2016-08-25T05:46:35.783Z,60.15
2016-08-25T05:46:57.508Z,60.06
2016-08-25T05:47:19.230Z,59.97
2016-08-25T05:47:40.957Z,59.97
2016-08-25T05:48:02.666Z,59.92
2016-08-25T05:48:24.385Z,60.03
2016-08-25T05:48:46.099Z,60.06
2016-08-25T05:49:07.831Z,60.03
2016-08-25T05:49:29.551Z,60.01
2016-08-25T05:49:51.271Z,59.94
2016-08-25T05:50:13.001Z,60.23
2016-08-25T05:50:34.720Z,60.30
2016-08-25T05:50:56.458Z,60.23
2016-08-25T05:51:18.177Z,60.20
2016-08-25T05:51:39.897Z,60.17
2016-08-25T05:52:01.609Z,60.08
2016-08-25T05:52:23.336Z,60.04
2016-08-25T05:52:45.061Z,60.07
2016-08-25T05:53:06.900Z,60.13
2016-08-25T05:53:28.614Z,60.42
2016-08-25T05:53:50.328Z,60.34
2016-08-25T05:54:12.045Z,60.32
2016-08-25T05:54:33.786Z,60.09
2016-08-25T05:54:55.510Z,60.23
2016-08-25T05:55:17.229Z,60.16
2016-08-25T05:55:38.946Z,60.76
2016-08-25T05:56:00.663Z,60.62
2016-08-25T05:56:22.384Z,60.85
2016-08-25T05:56:44.097Z,60.68
2016-08-25T05:57:05.819Z,60.57
2016-08-25T05:57:27.535Z,60.46
2016-08-25T05:57:49.254Z,60.38
2016-08-25T05:58:10.978Z,60.32
2016-08-25T05:58:32.700Z,60.51
2016-08-25T05:58:54.414Z,60.45
2016-08-25T05:59:16.128Z,60.16
2016-08-25T05:59:37.854Z,60.23
2016-08-25T05:59:59.575Z,60.19
2016-08-25T06:00:21.290Z,59.94
2016-08-25T06:00:43.012Z,60.01
2016-08-25T06:01:04.725Z,59.89
2016-08-25T06:01:26.465Z,59.81
2016-08-25T06:01:48.199Z,59.96
2016-08-25T06:02:09.921Z,59.97
2016-08-25T06:02:31.642Z,59.95
2016-08-25T06:02:53.371Z,59.89
2016-08-25T06:03:15.087Z,59.81
2016-08-25T06:03:36.813Z,59.92
2016-08-25T06:03:58.535Z,59.98
2016-08-25T06:04:20.263Z,60.11
2016-08-25T06:04:41.978Z,60.06
2016-08-25T06:05:03.698Z,59.98
2016-08-25T06:05:25.419Z,60.15
2016-08-25T06:05:47.143Z,60.10
2016-08-25T06:06:08.861Z,60.15
2016-08-25T06:06:30.582Z,60.21
2016-08-25T06:06:52.313Z,60.38
2016-08-25T06:07:14.046Z,60.29
2016-08-25T06:07:35.764Z,60.08
2016-08-25T06:07:57.809Z,60.08
2016-08-25T06:08:19.526Z,60.49
2016-08-25T06:08:41.247Z,60.61
2016-08-25T06:09:02.964Z,60.61
2016-08-25T06:09:24.698Z,60.77
2016-08-25T06:09:46.422Z,60.77
2016-08-25T06:10:08.141Z,60.82
2016-08-25T06:10:29.861Z,60.60
2016-08-25T06:10:51.595Z,60.46
2016-08-25T06:11:13.320Z,60.54
2016-08-25T06:11:35.048Z,60.35
2016-08-25T06:11:56.772Z,60.36
2016-08-25T06:12:18.692Z,60.17
2016-08-25T06:12:40.410Z,60.16
2016-08-25T06:13:06.901Z,60.17
2016-08-25T06:13:28.615Z,60.39
2016-08-25T06:13:50.329Z,60.11
2016-08-25T06:14:12.054Z,60.16
2016-08-25T06:14:33.770Z,60.18
2016-08-25T06:14:55.503Z,59.96
2016-08-25T06:15:17.235Z,59.94
2016-08-25T06:15:38.967Z,60.19
2016-08-25T06:16:00.701Z,60.16
2016-08-25T06:16:22.419Z,60.27
2016-08-25T06:16:44.140Z,60.23
2016-08-25T06:17:05.885Z,60.37
2016-08-25T06:17:27.600Z,60.19
2016-08-25T06:17:49.317Z,60.16
2016-08-25T06:18:11.031Z,60.50
2016-08-25T06:18:32.745Z,60.70
2016-08-25T06:18:54.470Z,60.51
2016-08-25T06:19:16.186Z,60.62
2016-08-25T06:19:37.908Z,60.49
2016-08-25T06:19:59.622Z,60.31
2016-08-25T06:20:21.348Z,60.36
2016-08-25T06:20:43.072Z,60.38
2016-08-25T06:21:04.791Z,60.10
2016-08-25T06:21:26.516Z,59.81
2016-08-25T06:21:50.944Z,59.74
2016-08-25T06:22:12.665Z,59.63
2016-08-25T06:22:34.397Z,59.65
2016-08-25T06:22:56.115Z,59.82
2016-08-25T06:23:17.834Z,59.94
2016-08-25T06:23:39.551Z,59.88
2016-08-25T06:24:01.277Z,59.91
2016-08-25T06:24:22.998Z,59.70
2016-08-25T06:24:44.712Z,59.63
2016-08-25T06:25:06.447Z,59.82
2016-08-25T06:25:28.173Z,59.63
2016-08-25T06:25:49.894Z,59.63
2016-08-25T06:26:11.613Z,59.51
2016-08-25T06:26:33.342Z,59.55
2016-08-25T06:26:55.066Z,59.93
2016-08-25T06:27:16.802Z,60.06
2016-08-25T06:27:38.533Z,59.84
2016-08-25T06:28:00.264Z,59.83
2016-08-25T06:28:21.984Z,59.92
2016-08-25T06:28:43.702Z,59.78
2016-08-25T06:29:05.430Z,59.61
2016-08-25T06:29:27.150Z,59.54
2016-08-25T06:29:48.858Z,59.82
2016-08-25T06:30:10.575Z,59.60
2016-08-25T06:30:32.294Z,59.44
2016-08-25T06:30:54.018Z,59.46
2016-08-25T06:31:15.735Z,59.55
2016-08-25T06:31:37.461Z,59.63
2016-08-25T06:31:59.174Z,60.03
2016-08-25T06:32:20.925Z,60.24
2016-08-25T06:32:42.664Z,60.17
2016-08-25T06:33:04.383Z,60.00
2016-08-25T06:33:26.100Z,60.06
2016-08-25T06:33:47.833Z,59.86
2016-08-25T06:34:09.556Z,59.74
2016-08-25T06:34:31.267Z,59.67
2016-08-25T06:34:52.989Z,59.55
2016-08-25T06:35:14.718Z,59.64
2016-08-25T06:35:36.458Z,59.50
2016-08-25T06:35:58.180Z,59.51
2016-08-25T06:36:19.909Z,59.57
2016-08-25T06:36:41.634Z,59.43
2016-08-25T06:37:03.354Z,59.41
2016-08-25T06:37:25.104Z,59.54
2016-08-25T06:37:46.834Z,59.55
2016-08-25T06:38:08.554Z,59.84
2016-08-25T06:38:30.280Z,59.92
2016-08-25T06:38:52.027Z,59.84
2016-08-25T06:39:13.716Z,59.74
2016-08-25T06:39:35.435Z,59.65
2016-08-25T06:39:57.169Z,59.72
2016-08-25T06:40:18.883Z,59.52
2016-08-25T06:40:40.621Z,59.49
2016-08-25T06:41:02.384Z,59.71
2016-08-25T06:41:24.094Z,59.73
2016-08-25T06:41:45.810Z,59.83
2016-08-25T06:42:07.526Z,60.31
2016-08-25T06:42:29.250Z,60.38
2016-08-25T06:42:50.974Z,60.20
2016-08-25T06:43:15.412Z,60.16
2016-08-25T06:43:37.131Z,59.87
2016-08-25T06:43:58.848Z,59.69
2016-08-25T06:44:20.567Z,59.85
2016-08-25T06:44:42.290Z,59.96
2016-08-25T06:45:04.020Z,59.94
2016-08-25T06:45:25.747Z,60.02
2016-08-25T06:45:47.474Z,59.90
2016-08-25T06:46:09.210Z,59.73
2016-08-25T06:46:30.922Z,59.58
2016-08-25T06:46:52.646Z,59.50
2016-08-25T06:47:14.386Z,59.49
2016-08-25T06:47:36.110Z,59.40